Time;durP1;ratioP1;P1;durP2;ratioP2;P2;SDS_P1;SDS_P2;PMS_P1;PMS_P2;Temp;Humidity;BMP_temperature;BMP_pressure;BME280_temperature;BME280_humidity;BME280_pressure;Samples;Min_cycle;Max_cycle;Signal;HPM_P1;HPM_P2
2024/04/04 03:32:27;;;;;;;2.38;1.00;;;14.50;99.90;;;;;;4938137;23;20072;-82
2024/04/04 03:34:52;;;;;;;6.40;1.15;;;14.50;99.90;;;;;;4876038;29;20044;-82
2024/04/04 03:37:18;;;;;;;2.72;0.90;;;14.50;99.90;;;;;;4870749;29;20053;-82
2024/04/04 03:39:47;;;;;;;2.17;0.95;;;14.50;99.90;;;;;;4876128;29;20021;-82
2024/04/04 03:42:12;;;;;;;3.20;0.85;;;14.50;99.90;;;;;;4875971;29;20025;-82
2024/04/04 03:44:38;;;;;;;3.08;0.85;;;14.50;99.90;;;;;;4879609;29;20402;-82
2024/04/04 03:47:04;;;;;;;2.60;0.88;;;14.50;99.90;;;;;;4879085;29;20025;-82
2024/04/04 03:49:29;;;;;;;2.90;1.20;;;14.50;99.90;;;;;;4879246;29;20402;-81
2024/04/04 03:51:55;;;;;;;2.80;1.00;;;14.50;99.90;;;;;;4879513;29;20032;-82
2024/04/04 03:54:21;;;;;;;2.70;1.05;;;14.50;99.90;;;;;;4880383;29;20029;-82
2024/04/04 03:56:46;;;;;;;3.72;1.20;;;14.50;99.90;;;;;;4879424;29;20104;-82
2024/04/04 03:59:12;;;;;;;3.65;1.23;;;14.50;99.90;;;;;;4879584;29;20367;-82
2024/04/04 04:01:38;;;;;;;4.32;1.02;;;14.50;99.90;;;;;;4879989;29;20073;-81
2024/04/04 04:04:04;;;;;;;3.08;0.90;;;14.50;99.90;;;;;;4878901;29;20048;-81
2024/04/04 04:06:30;;;;;;;2.53;1.00;;;14.50;99.90;;;;;;4877914;29;20039;-82
2024/04/04 04:08:55;;;;;;;3.67;1.00;;;14.50;99.90;;;;;;4878843;29;20123;-82
2024/04/04 04:11:21;;;;;;;2.30;0.98;;;14.50;99.90;;;;;;4878773;29;20029;-82
2024/04/04 04:13:47;;;;;;;3.25;1.10;;;14.50;99.90;;;;;;4878469;29;20032;-82
2024/04/04 04:16:16;;;;;;;3.45;1.30;;;14.50;99.90;;;;;;4879220;29;20025;-82
2024/04/04 04:18:42;;;;;;;4.63;1.20;;;14.50;99.90;;;;;;4880002;29;20073;-81
2024/04/04 04:21:26;;;;;;;4.13;1.23;;;14.50;99.90;;;;;;4878198;29;20268;-81
2024/04/04 04:23:54;;;;;;;2.92;1.00;;;14.50;99.90;;;;;;4882038;29;20064;-82
2024/04/04 04:26:20;;;;;;;3.63;1.33;;;14.50;99.90;;;;;;4879900;29;20037;-82
2024/04/04 04:28:46;;;;;;;2.75;1.00;;;14.50;99.90;;;;;;4878419;29;20550;-82
2024/04/04 04:31:41;;;;;;;4.13;0.90;;;14.50;99.90;;;;;;4878843;29;20033;-82
2024/04/04 04:34:07;;;;;;;2.70;0.90;;;14.50;99.90;;;;;;4803671;29;20109;-82
2024/04/04 04:36:35;;;;;;;5.28;1.10;;;14.50;99.90;;;;;;4788756;29;20035;-82
2024/04/04 04:39:01;;;;;;;3.63;1.25;;;14.50;99.90;;;;;;4811515;29;20043;-82
2024/04/04 04:41:27;;;;;;;3.85;1.13;;;14.50;99.90;;;;;;4803004;29;20034;-81
2024/04/04 04:43:53;;;;;;;2.35;0.98;;;14.50;99.90;;;;;;4788774;29;20038;-82
2024/04/04 04:46:19;;;;;;;2.78;1.02;;;14.50;99.90;;;;;;4803650;29;20039;-82
2024/04/04 04:48:45;;;;;;;3.78;1.30;;;14.50;99.90;;;;;;4803759;29;20538;-82
2024/04/04 04:51:11;;;;;;;3.22;1.17;;;14.50;99.90;;;;;;4787685;29;20049;-82
2024/04/04 04:53:38;;;;;;;4.68;1.05;;;14.50;99.90;;;;;;4803254;29;20126;-82
2024/04/04 04:56:04;;;;;;;2.10;0.80;;;14.50;99.90;;;;;;4788436;29;20084;-82
2024/04/04 04:58:30;;;;;;;2.83;1.10;;;14.50;99.90;;;;;;4795708;29;20085;-82
2024/04/04 05:00:56;;;;;;;3.22;1.23;;;14.50;99.90;;;;;;4788408;29;20026;-82
2024/04/04 05:03:23;;;;;;;1.88;1.00;;;14.50;99.90;;;;;;4788046;29;20436;-82
2024/04/04 05:05:50;;;;;;;3.50;1.10;;;14.50;99.90;;;;;;4787206;29;20031;-82
2024/04/04 05:08:17;;;;;;;2.53;0.90;;;14.50;99.90;;;;;;4794288;29;20090;-82
2024/04/04 05:10:43;;;;;;;4.85;1.35;;;14.50;99.90;;;;;;4832305;29;20033;-81
2024/04/04 05:13:09;;;;;;;4.03;1.40;;;14.50;99.90;;;;;;4877296;29;20434;-81
2024/04/04 05:15:46;;;;;;;4.80;1.08;;;14.50;99.90;;;;;;4876612;29;20025;-81
2024/04/04 05:18:12;;;;;;;2.88;1.10;;;14.50;99.90;;;;;;4862202;29;20025;-82
2024/04/04 05:20:39;;;;;;;4.78;1.42;;;14.50;99.90;;;;;;4862030;29;20502;-82
2024/04/04 05:23:04;;;;;;;4.28;1.10;;;14.50;99.90;;;;;;4877600;29;20025;-82
2024/04/04 05:25:30;;;;;;;3.92;1.23;;;14.50;99.90;;;;;;4877292;29;20025;-82
2024/04/04 05:27:56;;;;;;;4.10;1.05;;;14.50;99.90;;;;;;4862287;29;20054;-82
2024/04/04 05:30:21;;;;;;;3.92;1.20;;;14.50;99.90;;;;;;4873326;29;20025;-82
2024/04/04 05:32:47;;;;;;;4.50;1.40;;;14.50;99.90;;;;;;4877334;29;20545;-81
2024/04/04 05:35:14;;;;;;;4.00;1.30;;;14.50;99.90;;;;;;4877189;29;20037;-82
2024/04/04 05:37:40;;;;;;;3.00;1.00;;;14.50;99.90;;;;;;4876911;29;20037;-82
2024/04/04 05:40:08;;;;;;;3.72;1.10;;;14.50;99.90;;;;;;4861798;29;20033;-82
2024/04/04 05:42:36;;;;;;;2.90;0.98;;;14.50;99.90;;;;;;4877089;29;20025;-82
2024/04/04 05:45:02;;;;;;;4.57;1.33;;;14.50;99.90;;;;;;4878392;29;20032;-82
2024/04/04 05:47:28;;;;;;;3.72;1.10;;;14.50;99.90;;;;;;4877777;29;20032;-82
2024/04/04 05:49:54;;;;;;;3.72;1.02;;;14.50;99.90;;;;;;4877077;29;20033;-81
2024/04/04 05:52:19;;;;;;;5.00;1.33;;;14.50;99.90;;;;;;4876772;29;20075;-81
2024/04/04 05:54:48;;;;;;;6.47;1.30;;;14.50;99.90;;;;;;4872860;29;20033;-81
2024/04/04 05:57:14;;;;;;;3.75;1.27;;;14.50;99.90;;;;;;4876986;29;20021;-81
2024/04/04 05:59:40;;;;;;;5.43;1.40;;;14.50;99.90;;;;;;4876944;29;20025;-82
2024/04/04 06:02:06;;;;;;;3.13;1.30;;;14.50;99.90;;;;;;4875623;29;20032;-80
2024/04/04 06:04:32;;;;;;;4.25;1.23;;;14.50;99.90;;;;;;4876527;29;20033;-81
2024/04/04 06:06:57;;;;;;;4.57;1.63;;;14.50;99.90;;;;;;4877677;29;20036;-82
2024/04/04 06:09:23;;;;;;;2.45;1.17;;;14.50;99.90;;;;;;4876770;29;20112;-82
2024/04/04 06:11:49;;;;;;;3.83;1.27;;;14.50;99.90;;;;;;4862442;29;20470;-82
2024/04/04 06:14:14;;;;;;;3.88;1.42;;;14.50;99.90;;;;;;4860982;29;20101;-82
2024/04/04 06:16:41;;;;;;;5.72;1.50;;;14.50;99.90;;;;;;4876678;29;20029;-82
2024/04/04 06:19:07;;;;;;;3.72;1.23;;;14.50;99.90;;;;;;4876748;29;20049;-80
2024/04/04 06:21:32;;;;;;;3.08;1.27;;;14.50;99.90;;;;;;4876279;29;20056;-82
2024/04/04 06:23:58;;;;;;;3.30;1.00;;;14.50;99.90;;;;;;4876341;29;20025;-82
2024/04/04 06:26:26;;;;;;;3.65;1.30;;;14.50;99.90;;;;;;4876486;29;20036;-82
2024/04/04 06:28:55;;;;;;;2.17;0.98;;;14.50;99.90;;;;;;4875296;29;20029;-82
2024/04/04 06:31:22;;;;;;;3.97;1.20;;;14.50;99.90;;;;;;4876118;29;20079;-81
2024/04/04 06:33:47;;;;;;;4.22;1.55;;;14.50;99.90;;;;;;4860638;29;20491;-82
2024/04/04 06:36:13;;;;;;;4.53;1.33;;;14.50;99.90;;;;;;4876526;29;20025;-81
2024/04/04 06:38:40;;;;;;;3.53;1.33;;;14.50;99.90;;;;;;4869898;29;20498;-82
2024/04/04 06:41:05;;;;;;;3.67;1.13;;;14.50;99.90;;;;;;4877451;29;20021;-82
2024/04/04 06:43:31;;;;;;;2.17;1.08;;;14.50;99.90;;;;;;4859341;29;20084;-82
2024/04/04 06:45:57;;;;;;;2.35;1.13;;;14.50;99.90;;;;;;4876127;29;20061;-82
2024/04/04 06:48:22;;;;;;;4.15;1.20;;;14.50;99.90;;;;;;4876097;29;20092;-82
2024/04/04 06:50:48;;;;;;;2.40;0.95;;;14.50;99.90;;;;;;4875245;29;20031;-82
2024/04/04 06:53:14;;;;;;;3.08;1.15;;;14.50;99.90;;;;;;4860291;29;20562;-82
2024/04/04 06:55:39;;;;;;;3.25;1.15;;;14.50;99.90;;;;;;4876270;29;20032;-82
2024/04/04 06:58:05;;;;;;;3.67;1.00;;;14.50;99.90;;;;;;4876087;29;20021;-82
2024/04/04 07:00:31;;;;;;;3.40;1.05;;;14.50;99.90;;;;;;4874947;29;20390;-81
2024/04/04 07:02:56;;;;;;;2.97;1.08;;;14.50;99.90;;;;;;4877415;29;20040;-82
2024/04/04 07:05:24;;;;;;;2.80;1.10;;;14.50;99.90;;;;;;4876019;29;20401;-82
2024/04/04 07:07:50;;;;;;;3.08;0.98;;;14.50;99.90;;;;;;4875092;29;20032;-82
2024/04/04 07:10:15;;;;;;;2.08;1.00;;;14.50;99.90;;;;;;4860298;29;20089;-82
2024/04/04 07:12:41;;;;;;;3.08;1.15;;;14.50;99.90;;;;;;4873851;29;20029;-82
2024/04/04 07:15:07;;;;;;;3.22;1.15;;;14.50;99.90;;;;;;4875329;29;20401;-82
2024/04/04 07:17:33;;;;;;;3.30;1.15;;;14.50;99.90;;;;;;4878582;29;20312;-82
2024/04/04 07:19:59;;;;;;;2.20;1.00;;;14.50;99.90;;;;;;4864178;29;20023;-82
2024/04/04 07:22:26;;;;;;;2.08;0.85;;;14.50;99.90;;;;;;4878277;29;20530;-82
2024/04/04 07:24:51;;;;;;;3.22;1.23;;;14.50;99.90;;;;;;4879719;29;20119;-82
2024/04/04 07:27:17;;;;;;;2.85;1.10;;;14.50;99.90;;;;;;4879408;29;20132;-82
2024/04/04 07:29:44;;;;;;;2.50;0.95;;;14.50;99.90;;;;;;4878531;29;20455;-82
2024/04/04 07:32:10;;;;;;;3.30;0.85;;;14.50;99.90;;;;;;4863498;29;20203;-82
2024/04/04 07:34:36;;;;;;;2.00;0.90;;;14.50;99.90;;;;;;4879416;29;20104;-82
2024/04/04 07:37:02;;;;;;;3.30;1.40;;;14.40;99.90;;;;;;4873842;29;20036;-82
2024/04/04 07:39:29;;;;;;;2.63;1.00;;;14.40;99.90;;;;;;4862264;29;20033;-81
2024/04/04 07:41:55;;;;;;;2.67;1.17;;;14.50;99.90;;;;;;4878537;29;20029;-82
2024/04/04 07:44:20;;;;;;;1.60;0.80;;;14.50;99.90;;;;;;4863714;29;20525;-82
2024/04/04 07:46:49;;;;;;;2.55;1.00;;;14.50;99.90;;;;;;4864012;29;20025;-81
2024/04/04 07:49:14;;;;;;;1.67;0.85;;;14.50;99.90;;;;;;4878190;29;20040;-82
2024/04/04 07:51:41;;;;;;;2.33;1.05;;;14.50;99.90;;;;;;4879178;29;20037;-83
2024/04/04 07:54:06;;;;;;;2.45;1.00;;;14.50;99.90;;;;;;4880309;29;20475;-82
2024/04/04 07:56:32;;;;;;;2.65;1.00;;;14.50;99.90;;;;;;4878985;29;20025;-82
2024/04/04 07:58:58;;;;;;;3.03;1.00;;;14.50;99.90;;;;;;4878445;29;20025;-81
2024/04/04 08:01:23;;;;;;;3.47;1.08;;;14.50;99.90;;;;;;4878675;29;20085;-82
2024/04/04 08:03:50;;;;;;;1.90;0.90;;;14.50;99.90;;;;;;4878778;29;20068;-82
2024/04/04 08:06:16;;;;;;;1.60;0.82;;;14.50;99.90;;;;;;4879496;29;20029;-82
2024/04/04 08:08:43;;;;;;;3.90;1.10;;;14.50;99.90;;;;;;4878945;29;20367;-82
2024/04/04 08:11:12;;;;;;;2.85;1.02;;;14.50;99.90;;;;;;4878681;29;20029;-82
2024/04/04 08:13:38;;;;;;;2.90;0.80;;;14.50;99.90;;;;;;4886412;29;20108;-82
2024/04/04 08:16:05;;;;;;;2.67;1.08;;;14.50;99.90;;;;;;4874828;29;20065;-82
2024/04/04 08:18:31;;;;;;;1.88;0.90;;;14.50;99.90;;;;;;4874714;29;20065;-82
2024/04/04 08:20:56;;;;;;;3.25;1.20;;;14.50;99.90;;;;;;4865991;29;20375;-81
2024/04/04 08:23:23;;;;;;;1.65;0.75;;;14.50;99.90;;;;;;4865267;29;20032;-82
2024/04/04 08:25:57;;;;;;;2.63;1.00;;;14.50;99.90;;;;;;4871644;29;20021;-82
2024/04/04 08:28:23;;;;;;;1.95;1.00;;;14.50;99.90;;;;;;4862746;29;20477;-82
2024/04/04 08:31:03;;;;;;;3.08;1.25;;;14.50;99.90;;;;;;4874153;29;20061;-82
2024/04/04 08:33:30;;;;;;;1.75;1.00;;;14.50;99.90;;;;;;4874085;29;20033;-82
2024/04/04 08:35:57;;;;;;;4.07;1.10;;;14.50;99.90;;;;;;4868534;29;20538;-82
2024/04/04 08:38:22;;;;;;;2.28;1.00;;;14.50;99.90;;;;;;4877216;29;20040;-81
2024/04/04 08:40:49;;;;;;;2.05;1.00;;;14.50;99.90;;;;;;4878353;29;20025;-82
2024/04/04 08:43:16;;;;;;;1.48;0.70;;;14.50;99.90;;;;;;4877996;29;20092;-80
2024/04/04 08:45:49;;;;;;;1.92;0.82;;;14.50;99.90;;;;;;4878533;29;20025;-82
2024/04/04 08:48:19;;;;;;;1.40;0.75;;;14.40;99.90;;;;;;4878220;29;20388;-80
2024/04/04 08:50:46;;;;;;;2.85;0.93;;;14.50;99.90;;;;;;4862581;29;20025;-82
2024/04/04 08:53:25;;;;;;;1.60;1.00;;;14.50;99.90;;;;;;4862384;29;20021;-82
2024/04/04 08:55:54;;;;;;;1.38;0.82;;;14.50;99.90;;;;;;4877450;29;20128;-81
2024/04/04 08:58:21;;;;;;;2.38;1.10;;;14.50;99.90;;;;;;4877956;29;20029;-82
2024/04/04 09:00:47;;;;;;;1.27;0.90;;;14.50;99.90;;;;;;4877968;29;20029;-82
2024/04/04 09:03:13;;;;;;;2.25;1.00;;;14.50;99.90;;;;;;4858171;29;20627;-81
2024/04/04 09:05:52;;;;;;;2.50;1.10;;;14.50;99.90;;;;;;4877600;29;20613;-82
2024/04/04 09:08:18;;;;;;;1.83;0.80;;;14.50;99.90;;;;;;4877775;29;20025;-82
2024/04/04 09:10:50;;;;;;;6.57;1.08;;;14.40;99.90;;;;;;4882679;29;20191;-81
2024/04/04 09:13:17;;;;;;;2.35;1.10;;;14.50;99.90;;;;;;4863681;29;20471;-82
2024/04/04 09:15:43;;;;;;;1.80;0.80;;;14.50;99.90;;;;;;4886605;29;20025;-82
2024/04/04 09:18:11;;;;;;;2.38;0.98;;;14.50;99.90;;;;;;4893536;29;20056;-82
2024/04/04 09:20:41;;;;;;;1.35;0.90;;;14.50;99.90;;;;;;4861021;29;20036;-82
2024/04/04 09:23:09;;;;;;;2.08;0.90;;;14.50;99.90;;;;;;4877355;29;20029;-82
2024/04/04 09:25:40;;;;;;;2.95;0.90;;;14.50;99.90;;;;;;4877426;29;20037;-82
2024/04/04 09:28:08;;;;;;;1.92;0.90;;;14.50;99.90;;;;;;4878740;29;20599;-81
2024/04/04 09:30:36;;;;;;;2.58;0.90;;;14.50;99.90;;;;;;4878609;29;20033;-81
2024/04/04 09:33:06;;;;;;;1.33;0.80;;;14.50;99.90;;;;;;4866827;29;20380;-82
2024/04/04 09:35:33;;;;;;;2.55;0.90;;;14.50;99.90;;;;;;4877400;29;20406;-81
2024/04/04 09:37:59;;;;;;;1.98;0.90;;;14.40;99.90;;;;;;4851198;29;20457;-82
2024/04/04 09:40:26;;;;;;;1.73;0.93;;;14.50;99.90;;;;;;4858542;29;20115;-82
2024/04/04 09:42:51;;;;;;;1.30;0.80;;;14.50;99.90;;;;;;4876971;29;20236;-82
2024/04/04 09:45:17;;;;;;;1.77;0.98;;;14.50;99.90;;;;;;4903370;23;20205;-79
2024/04/04 09:47:47;;;;;;;1.27;0.88;;;14.50;99.90;;;;;;4853459;29;20433;-79
2024/04/04 09:50:17;;;;;;;;;;;14.50;99.90;;;;;;4861082;29;20094;-80
2024/04/04 09:52:43;;;;;;;2.53;0.80;;;14.50;99.90;;;;;;4859330;29;19980;-79
2024/04/04 09:55:17;;;;;;;1.40;0.80;;;14.50;99.90;;;;;;4845458;29;20499;-79
2024/04/04 09:57:44;;;;;;;0.80;0.60;;;14.50;99.90;;;;;;4859083;29;20116;-79
2024/04/04 10:00:18;;;;;;;0.93;0.60;;;14.50;99.90;;;;;;4846520;29;20087;-79
2024/04/04 10:02:47;;;;;;;2.05;0.80;;;14.50;99.90;;;;;;4855048;29;20038;-79
2024/04/04 10:05:17;;;;;;;;;;;14.40;99.90;;;;;;4849970;29;20030;-79
2024/04/04 10:07:44;;;;;;;1.15;0.60;;;14.50;99.90;;;;;;4851361;29;19915;-79
2024/04/04 10:10:19;;;;;;;1.40;0.90;;;14.50;99.90;;;;;;4853617;29;20062;-79
2024/04/04 10:12:52;;;;;;;1.33;0.60;;;14.50;99.90;;;;;;4852624;29;20072;-79
2024/04/04 10:15:19;;;;;;;1.88;0.82;;;14.50;99.90;;;;;;4853067;29;20030;-79
2024/04/04 10:17:52;;;;;;;1.88;0.75;;;14.50;99.90;;;;;;4841673;29;20448;-79
2024/04/04 10:20:21;;;;;;;0.80;0.60;;;14.40;99.90;;;;;;4850208;29;20261;-79
2024/04/04 10:23:01;;;;;;;1.67;0.80;;;14.40;99.90;;;;;;4858568;29;20034;-79
2024/04/04 10:25:26;;;;;;;2.55;0.80;;;14.40;99.90;;;;;;4858802;29;20489;-80
2024/04/04 10:28:06;;;;;;;1.00;0.65;;;14.50;99.90;;;;;;4858346;29;20125;-79
2024/04/04 10:30:35;;;;;;;;;;;14.40;99.90;;;;;;4843595;29;20048;-79
2024/04/04 10:33:08;;;;;;;1.05;0.70;;;14.50;99.90;;;;;;4847281;29;19984;-79
2024/04/04 10:35:34;;;;;;;1.20;0.80;;;14.50;99.90;;;;;;4849373;29;20120;-79
2024/04/04 10:38:26;;;;;;;1.55;0.73;;;14.40;99.90;;;;;;4844932;29;20121;-79
2024/04/04 10:40:55;;;;;;;1.10;0.70;;;14.50;99.90;;;;;;4828759;29;20038;-79
2024/04/04 10:43:21;;;;;;;1.88;0.80;;;14.50;99.90;;;;;;4840816;29;20025;-79
2024/04/04 10:45:47;;;;;;;1.75;0.70;;;14.50;99.90;;;;;;4854389;29;20031;-80
2024/04/04 10:48:12;;;;;;;1.48;0.80;;;14.50;99.90;;;;;;4863455;29;20078;-79
2024/04/04 10:50:38;;;;;;;1.23;0.68;;;14.50;99.90;;;;;;4861864;29;20111;-81
2024/04/04 10:53:04;;;;;;;1.23;0.70;;;14.50;99.90;;;;;;4860710;29;20029;-79
2024/04/04 10:55:31;;;;;;;1.98;0.80;;;14.50;99.90;;;;;;4860267;29;20029;-79
2024/04/04 10:57:57;;;;;;;1.00;0.60;;;14.50;99.90;;;;;;4858437;29;20160;-79
2024/04/04 11:00:29;;;;;;;1.80;0.70;;;14.50;99.90;;;;;;4864867;29;20108;-79
2024/04/04 11:02:58;;;;;;;1.48;0.60;;;14.50;99.90;;;;;;4873023;29;20021;-75
2024/04/04 11:05:24;;;;;;;1.80;0.50;;;14.40;99.90;;;;;;4874578;29;20070;-79
2024/04/04 11:07:57;;;;;;;13.35;1.67;;;14.30;99.90;;;;;;4869312;29;20048;-79
2024/04/04 11:10:23;;;;;;;13.70;1.70;;;14.10;99.90;;;;;;4874579;29;20029;-80
2024/04/04 11:12:49;;;;;;;13.25;1.80;;;13.90;99.90;;;;;;4853198;29;20513;-79
2024/04/04 11:15:15;;;;;;;11.45;1.60;;;13.90;99.90;;;;;;4871216;29;20037;-79
2024/04/04 11:17:41;;;;;;;10.82;1.98;;;14.00;99.90;;;;;;4867574;29;20265;-79
2024/04/04 11:20:16;;;;;;;14.10;1.83;;;14.00;99.90;;;;;;4861390;29;20021;-80
2024/04/04 11:22:43;;;;;;;8.20;1.70;;;14.10;99.90;;;;;;4873725;29;20034;-79
2024/04/04 11:25:09;;;;;;;6.25;1.55;;;14.10;99.90;;;;;;4848627;29;20052;-80
2024/04/04 11:27:36;;;;;;;12.15;1.77;;;14.10;99.90;;;;;;4875452;29;20033;-79
2024/04/04 11:30:03;;;;;;;6.50;1.20;;;14.20;99.90;;;;;;4859441;29;20033;-79
2024/04/04 11:32:28;;;;;;;7.72;1.48;;;14.20;99.90;;;;;;4858393;29;20029;-79
2024/04/04 11:34:54;;;;;;;7.18;1.65;;;14.20;99.90;;;;;;4881867;29;20394;-79
2024/04/04 11:37:20;;;;;;;5.97;1.20;;;14.20;99.90;;;;;;4865792;29;20044;-80
2024/04/04 11:39:46;;;;;;;4.30;1.30;;;14.30;99.90;;;;;;4857855;29;20026;-79
2024/04/04 11:42:11;;;;;;;7.25;1.77;;;14.30;99.90;;;;;;4872881;29;20033;-79
2024/04/04 11:44:37;;;;;;;6.38;1.00;;;14.30;99.90;;;;;;4873808;29;20513;-79
2024/04/04 11:47:03;;;;;;;5.10;1.15;;;14.30;99.90;;;;;;4862971;29;20419;-80
2024/04/04 11:49:30;;;;;;;5.90;1.30;;;14.30;99.90;;;;;;4869138;29;20033;-79
2024/04/04 11:51:56;;;;;;;8.02;1.40;;;14.30;99.90;;;;;;4865804;29;20033;-80
2024/04/04 11:54:22;;;;;;;7.13;1.60;;;14.30;99.90;;;;;;4861420;29;20030;-79
2024/04/04 11:56:48;;;;;;;7.30;1.60;;;14.30;99.90;;;;;;4869759;29;20027;-80
2024/04/04 11:59:14;;;;;;;5.68;1.00;;;14.30;99.90;;;;;;4871350;29;20120;-79
2024/04/04 12:01:40;;;;;;;3.90;1.20;;;14.30;99.90;;;;;;4872015;29;20037;-79
2024/04/04 12:04:08;;;;;;;6.35;1.73;;;14.40;99.90;;;;;;4864508;29;20203;-79
2024/04/04 12:06:34;;;;;;;5.43;1.20;;;14.30;99.90;;;;;;4872326;29;20455;-79
2024/04/04 12:08:59;;;;;;;5.68;1.10;;;14.40;99.90;;;;;;4873295;29;20029;-79
2024/04/04 12:11:25;;;;;;;6.28;1.33;;;14.40;99.90;;;;;;4886745;29;20065;-79
2024/04/04 12:13:52;;;;;;;5.22;1.48;;;14.40;99.90;;;;;;4872949;29;20035;-80
2024/04/04 12:16:19;;;;;;;6.10;1.50;;;14.40;99.90;;;;;;4895074;29;20089;-79
2024/04/04 12:21:30;;;;;;;7.10;1.60;;;14.40;99.90;;;;;;4877849;29;20048;-81
2024/04/04 12:23:56;;;;;;;7.85;1.50;;;14.40;99.90;;;;;;4890385;29;20112;-79
2024/04/04 12:26:23;;;;;;;6.07;1.10;;;14.40;99.90;;;;;;4869191;29;20108;-79
2024/04/04 12:28:54;;;;;;;4.57;1.45;;;14.40;99.90;;;;;;4869470;29;20033;-80
2024/04/04 12:31:20;;;;;;;4.88;1.00;;;14.40;99.90;;;;;;4860638;29;20113;-79
2024/04/04 12:33:46;;;;;;;4.15;1.05;;;14.40;99.90;;;;;;4871683;29;20479;-79
2024/04/04 12:36:12;;;;;;;3.03;0.82;;;14.40;99.90;;;;;;4871753;29;20025;-79
2024/04/04 12:38:38;;;;;;;2.92;1.10;;;14.40;99.90;;;;;;4862099;29;20057;-79
2024/04/04 12:41:03;;;;;;;3.38;1.08;;;14.40;99.90;;;;;;4872631;29;20072;-79
2024/04/04 12:43:29;;;;;;;3.28;1.10;;;14.40;99.90;;;;;;4878312;29;20066;-80
2024/04/04 12:46:02;;;;;;;1.88;0.70;;;14.40;99.90;;;;;;4867987;29;20125;-79
2024/04/04 12:48:28;;;;;;;2.20;0.90;;;14.40;99.90;;;;;;4868653;29;20029;-79
2024/04/04 12:50:54;;;;;;;3.10;1.00;;;14.40;99.90;;;;;;4877128;29;20029;-79
2024/04/04 12:53:19;;;;;;;3.42;1.10;;;14.40;99.90;;;;;;4850949;29;20029;-80
2024/04/04 12:55:45;;;;;;;4.10;1.13;;;14.40;99.90;;;;;;4870867;29;20017;-80
2024/04/04 12:58:10;;;;;;;2.85;1.30;;;14.50;99.90;;;;;;4878749;29;20073;-79
2024/04/04 13:00:36;;;;;;;3.63;1.10;;;14.50;99.90;;;;;;4853578;29;20029;-79
2024/04/04 13:03:02;;;;;;;2.75;0.90;;;14.50;99.90;;;;;;4867518;29;20491;-79
2024/04/04 13:05:28;;;;;;;3.58;1.00;;;14.50;99.90;;;;;;4867694;29;20447;-79
2024/04/04 13:07:53;;;;;;;2.42;0.90;;;14.50;99.90;;;;;;4870274;29;20036;-79
2024/04/04 13:10:19;;;;;;;4.72;1.20;;;14.50;99.90;;;;;;4865863;29;20073;-80
2024/04/04 13:12:45;;;;;;;3.95;1.15;;;14.50;99.90;;;;;;4867215;29;20033;-79
2024/04/04 13:15:11;;;;;;;2.92;1.10;;;14.50;99.90;;;;;;4860709;29;20017;-79
2024/04/04 13:17:37;;;;;;;4.68;0.95;;;14.50;99.90;;;;;;4852445;29;20173;-79
2024/04/04 13:20:10;;;;;;;3.13;0.90;;;14.50;99.90;;;;;;4870558;29;20514;-79
2024/04/04 13:22:36;;;;;;;4.05;1.00;;;14.50;99.90;;;;;;4847432;29;20120;-79
2024/04/04 13:25:01;;;;;;;3.63;1.10;;;14.50;99.90;;;;;;4866306;29;20053;-80
2024/04/04 13:27:27;;;;;;;3.05;0.90;;;14.50;99.90;;;;;;4862119;29;20454;-79
2024/04/04 13:29:52;;;;;;;4.57;0.98;;;14.50;99.90;;;;;;4871826;29;20025;-79
2024/04/04 13:32:18;;;;;;;2.70;0.90;;;14.50;99.90;;;;;;4877915;29;20405;-79
2024/04/04 13:34:44;;;;;;;2.40;1.00;;;14.50;99.90;;;;;;4869148;29;20037;-79
2024/04/04 13:37:09;;;;;;;3.83;0.85;;;14.50;99.90;;;;;;4874238;29;20026;-79
2024/04/04 13:39:35;;;;;;;2.95;1.10;;;14.50;99.90;;;;;;4874569;29;20452;-79
2024/04/04 13:42:01;;;;;;;3.63;1.10;;;14.50;99.90;;;;;;4878862;29;20109;-79
2024/04/04 13:44:26;;;;;;;2.92;1.05;;;14.50;99.90;;;;;;4847673;29;20049;-79
2024/04/04 13:46:52;;;;;;;4.68;1.10;;;14.50;99.90;;;;;;4868084;29;20041;-80
2024/04/04 13:49:18;;;;;;;1.65;0.80;;;14.50;99.90;;;;;;4857588;29;20040;-79
2024/04/04 13:51:43;;;;;;;3.38;0.98;;;14.50;99.90;;;;;;4866111;29;20029;-79
2024/04/04 13:54:09;;;;;;;3.03;0.90;;;14.50;99.90;;;;;;4859080;29;20030;-79
2024/04/04 13:56:34;;;;;;;3.97;1.05;;;14.50;99.90;;;;;;4858380;29;20506;-79
2024/04/04 13:59:00;;;;;;;2.22;0.90;;;14.50;99.90;;;;;;4877818;29;20061;-79
2024/04/04 14:01:37;;;;;;;2.72;0.80;;;14.50;99.90;;;;;;4868612;29;20491;-79
2024/04/04 14:04:03;;;;;;;2.65;0.93;;;14.50;99.90;;;;;;4858237;29;20140;-79
2024/04/04 14:06:29;;;;;;;3.50;1.05;;;14.50;99.90;;;;;;4871300;29;20060;-79
2024/04/04 14:08:54;;;;;;;3.08;0.93;;;14.50;99.90;;;;;;4895907;29;20126;-79
2024/04/04 14:11:23;;;;;;;4.43;1.00;;;14.50;99.90;;;;;;4881268;29;20029;-79
2024/04/04 14:13:51;;;;;;;4.18;1.00;;;14.50;99.90;;;;;;4870013;29;20033;-79
2024/04/04 14:16:16;;;;;;;1.13;0.50;;;14.50;99.90;;;;;;4883699;29;20052;-79
2024/04/04 14:18:42;;;;;;;3.10;0.90;;;14.50;99.90;;;;;;4881801;29;20103;-79
2024/04/04 14:21:07;;;;;;;2.83;0.93;;;14.50;99.90;;;;;;4877578;29;20025;-79
2024/04/04 14:23:33;;;;;;;2.63;1.10;;;14.50;99.90;;;;;;4858757;29;20467;-79
2024/04/04 14:25:59;;;;;;;1.98;0.80;;;14.50;99.90;;;;;;4865188;29;20042;-79
2024/04/04 14:28:24;;;;;;;2.13;0.95;;;14.50;99.90;;;;;;4889508;29;20077;-79
2024/04/04 14:30:50;;;;;;;1.73;0.68;;;14.50;99.90;;;;;;4886187;29;20032;-79
2024/04/04 14:33:16;;;;;;;1.92;0.80;;;14.50;99.90;;;;;;4879206;29;20508;-79
2024/04/04 14:35:42;;;;;;;2.88;0.90;;;14.50;99.90;;;;;;4859332;29;20104;-79
2024/04/04 14:38:08;;;;;;;2.58;0.90;;;14.50;99.90;;;;;;4864179;29;20024;-79
2024/04/04 14:40:34;;;;;;;2.40;1.00;;;14.50;99.90;;;;;;4879691;29;20029;-80
2024/04/04 14:43:00;;;;;;;3.13;1.02;;;14.50;99.90;;;;;;4879267;29;20029;-79
2024/04/04 14:45:26;;;;;;;2.35;0.93;;;14.50;99.90;;;;;;4870708;29;20056;-79
2024/04/04 14:47:53;;;;;;;2.78;0.90;;;14.50;99.90;;;;;;4886596;29;20080;-80
2024/04/04 14:50:19;;;;;;;2.17;1.02;;;14.50;99.90;;;;;;4890464;29;20040;-79
2024/04/04 14:52:45;;;;;;;3.00;1.00;;;14.50;99.90;;;;;;4894025;29;20505;-79
2024/04/04 14:55:11;;;;;;;1.90;0.80;;;14.50;99.90;;;;;;4867613;29;20118;-79
2024/04/04 14:57:37;;;;;;;3.83;0.90;;;14.50;99.90;;;;;;4887194;29;20062;-79
2024/04/04 15:00:03;;;;;;;4.00;1.15;;;14.50;99.90;;;;;;4889978;29;20096;-79
2024/04/04 15:02:29;;;;;;;2.28;0.75;;;14.50;99.90;;;;;;4889670;29;20036;-79
2024/04/04 15:04:55;;;;;;;3.05;1.00;;;14.50;99.90;;;;;;4880848;29;20028;-79
2024/04/04 15:07:23;;;;;;;2.65;0.80;;;14.50;99.90;;;;;;4868411;29;20036;-80
2024/04/04 15:09:49;;;;;;;2.60;0.80;;;14.50;99.90;;;;;;4877300;29;20037;-79
2024/04/04 15:12:14;;;;;;;2.33;0.80;;;14.50;99.90;;;;;;4884102;29;20116;-79
2024/04/04 15:14:40;;;;;;;1.92;0.82;;;14.50;99.90;;;;;;4880657;29;20100;-79
2024/04/04 15:17:05;;;;;;;2.53;0.90;;;14.50;99.90;;;;;;4865274;29;20409;-80
2024/04/04 15:19:31;;;;;;;3.30;1.00;;;14.50;99.90;;;;;;4888417;29;20029;-79
2024/04/04 15:21:57;;;;;;;2.97;0.90;;;14.50;99.90;;;;;;4891978;29;20089;-79
2024/04/04 15:24:22;;;;;;;4.38;1.00;;;14.50;99.90;;;;;;4875308;29;20115;-79
2024/04/04 15:26:48;;;;;;;1.67;0.77;;;14.50;99.90;;;;;;4893999;29;20056;-79
2024/04/04 15:29:17;;;;;;;1.95;0.85;;;14.50;99.90;;;;;;4875146;29;20402;-79
2024/04/04 15:31:43;;;;;;;1.90;0.80;;;14.60;99.90;;;;;;4861122;29;20025;-79
2024/04/04 15:34:09;;;;;;;2.03;0.90;;;14.50;99.90;;;;;;4889818;29;20036;-79
2024/04/04 15:36:37;;;;;;;2.10;0.95;;;14.60;99.90;;;;;;4872569;29;20025;-79
2024/04/04 15:39:04;;;;;;;3.05;0.88;;;14.60;99.90;;;;;;4883349;29;20055;-79
2024/04/04 15:41:29;;;;;;;2.40;0.80;;;14.60;99.90;;;;;;4870023;29;20045;-79
2024/04/04 15:43:55;;;;;;;2.00;0.70;;;14.50;99.90;;;;;;4864200;29;20048;-79
2024/04/04 15:46:21;;;;;;;2.38;0.88;;;14.60;99.90;;;;;;4895815;23;20416;-81
2024/04/04 15:48:46;;;;;;;3.75;0.80;;;14.50;99.90;;;;;;4879690;29;20505;-81
2024/04/04 15:51:12;;;;;;;1.73;0.85;;;14.50;99.90;;;;;;4877523;29;20022;-81
2024/04/04 15:53:38;;;;;;;2.05;0.75;;;14.50;99.90;;;;;;4885284;29;20040;-81
2024/04/04 15:56:05;;;;;;;2.22;0.98;;;14.50;99.90;;;;;;4883375;29;20024;-81
2024/04/04 15:58:31;;;;;;;2.13;0.70;;;14.50;99.90;;;;;;4871982;29;20028;-82
2024/04/04 16:00:56;;;;;;;1.98;0.82;;;14.50;99.90;;;;;;4873723;29;20021;-80
2024/04/04 16:03:22;;;;;;;1.42;0.70;;;14.60;99.90;;;;;;4871835;29;20060;-81
2024/04/04 16:05:48;;;;;;;2.78;0.82;;;14.50;99.90;;;;;;4878582;29;20036;-82
2024/04/04 16:08:13;;;;;;;2.35;0.85;;;14.50;99.90;;;;;;4862123;29;20439;-82
2024/04/04 16:10:39;;;;;;;2.45;1.00;;;14.50;99.90;;;;;;4879297;29;20028;-81
2024/04/04 16:13:04;;;;;;;1.48;0.55;;;14.50;99.90;;;;;;4883006;29;20215;-82
2024/04/04 16:15:30;;;;;;;1.80;0.73;;;14.60;99.90;;;;;;4868134;29;20501;-82
2024/04/04 16:17:56;;;;;;;2.67;1.05;;;14.50;99.90;;;;;;4879897;29;20041;-82
2024/04/04 16:20:21;;;;;;;1.52;0.80;;;14.60;99.90;;;;;;4871546;29;20080;-81